Logs for Dave Teague, Jena, LA, USA [EM31wq]
Paging Controls
Date UTC KHz ID Location S/P ITU Region GSQ LSB USB Sec. Fmt. Power KM Miles
2006-10-02 0246 275 GUY Guymon OK USA na DM96fq 25 1028 639
2006-10-02 0235 286 EYQ 'Weiser' Houston TX USA na EL29ew 25 387 240
2006-10-02 0231 283 PT Pelee Island ON CAN na EN81ps 100 1398 869
2006-10-02 0227 281 UVA Uvalde TX USA na EL09de 25 778 483
2006-10-02 0216 276 TWT 'Tradewater' Sturgis KY USA na EM67al 25 748 465
2006-10-02 0215 275 PEZ Pleasanton TX USA na EL08rw 687 427
2006-10-01 2136 308 UTS Huntsville TX USA na EM20er 28 349 217
2006-10-01 2134 305 LST Lone Star TX USA na EM22pw 280 174
2006-10-01 2133 302 CWS Conway AR USA na EM35sc 25 381 237
2006-10-01 2129 287 ME 'Elvis' Memphis TN USA na EM45xb 422 262
2006-10-01 2126 284 IDL Indianola MS USA na EM43pl 25 239 149
2006-10-01 2124 284 BT 'Rundi' Baton Rouge LA USA na EM40jn 152 95
2006-10-01 2120 278 UX 'Sulfy' Sulphur LA USA na EM30ge 210 130
2006-10-01 2120 278 FD 'Earli' Poplar Bluff MO USA na EM46uq 581 361
2006-10-01 2115 272 RNV 'Renova' MS USA na EM43ot 25 267 166
2006-09-30 0721 314 GGU Prague OK USA na EM15pm 25 601 374
2006-09-30 0715 284 VIV Vivian LA USA na EM22xu 222 138
2006-09-30 0712 281 DEQ De Queen AR USA na EM24tb 25 337 210
2006-09-30 0711 278 CRZ Corning IA USA na EN20ox 25 1060 659
2006-09-30 0702 272 YQA Muskoka ON CAN na FN05ia 400 1852 1151
2006-09-30 0510 263 JSO 'Cherokee Co' Jacksonville TX USA na EM21ju 292 181
2006-09-30 0507 260 OUN Norman OK USA na EM15gf 25 632 393
2006-09-30 0507 263 ECY Eunice LA USA na EM30sn 25 129 80
2006-09-30 0505 260 AVZ 'Travis' Terrell TX USA na EM12vs 25 402 250
2006-09-30 0502 256 JBL 'Hodge' Jonesboro LA USA na EM32pe 78 49
2006-09-30 0501 253 OC 'Nados' Nacogdoches TX USA na EM21pl 25 246 153
2006-09-30 0458 251 MNZ Hamilton TX USA na EM01wo 25 568 353
2006-09-30 0455 250 YTJ Terrace Bay ON CAN na EN68kt 100 1949 1211
2006-09-30 0454 251 YCD Nanaimo BC CAN na CN89bd 500 3276 2036
2006-09-30 0449 247 ILT Isleta NM USA na DM64qx 400 1394 866
2006-09-30 0449 248 PQF Mesquite TX USA na EM12rt 25 434 269
2006-09-30 0445 247 VED Leesville LA USA na EM31hc 135 84
2006-09-30 0437 245 ARM Wharton TX USA na EL19wg 25 468 291
2006-09-30 0426 241 EZY Elk City OK USA na EM05hk 790 491
2006-09-30 0418 240 AWC Fort Polk LA USA na EM31ij 115 72
2006-09-30 0416 239 LNC Lancaster TX USA na EM12pn 25 442 275
2006-09-30 0408 227 MPR Mc Pherson KS USA na EM18di 25 898 558
2006-09-30 0358 224 BH 'Mc Den' Birmingham AL USA na EM63nm 400 532 331
2006-09-30 0354 224 GVA 'Geneva' Henderson KY USA na EM67ct 25 787 489
2006-09-30 0348 223 ES 'Andra' Alexandria LA USA na EM31vj 33 21
2006-09-30 0340 216 CLB Wilmington / Carolina Beach NC USA na FM14ac 1348 838
2006-09-30 0337 211 ORG Orange TX USA na EM30cb 241 150
2006-09-30 0319 206 GLS Galveston TX USA na EL29oi 2000 364 226
2006-09-30 0255 198 DIW Dixon NC USA na FM14gn 2000 1401 871
2006-09-30 0255 201 MNE Minden LA USA na EM32ip 153 95
2006-03-31 0212 206 GLS Galveston TX USA na EL29oi 2000 364 226
2006-03-31 0211 212 HMQ Homer LA USA na EM32ls 148 92
2006-03-30 1848 349 GW 'Teock' Greenwood MS USA na EM43wo 25 284 176
2006-03-30 1848 359 GUV 'Gator' Fort Polk LA USA na EM31ja 127 79
2006-03-30 1843 278 UX 'Sulfy' Sulphur LA USA na EM30ge 210 130
2006-03-30 0626 223 ES 'Andra' Alexandria LA USA na EM31vj 33 21
2006-03-30 0626 240 AWC Fort Polk LA USA na EM31ij 115 72
2006-03-30 0624 239 LNC Lancaster TX USA na EM12pn 25 442 275
2006-03-30 0618 233 QN Nakina ON CAN na EO60qe 400 2106 1309
2006-03-30 0544 208 BDQ 'Bridge' Morrilton AR USA na EM35pd 25 388 241
2006-03-30 0541 208 CHQ Charleston MO USA na EM56hu 627 390
2006-03-30 0528 201 GV 'Major' Greenville TX USA na EM13xd 25 402 250
2006-03-30 0528 203 DMZ Dickson TN USA na EM66gd 25 656 408
2006-03-30 0507 198 DIW Dixon NC USA na FM14gn 2000 1401 871
2006-03-30 0503 234 TX 'Tecco' Texarkana AR USA na EM33am 25 266 166
2006-03-30 0500 233 HR 'Bakky' Harrison AR USA na EM36kd 504 313
2006-03-30 0457 256 TQK Scott City KS USA na DM98nl 1096 681
2006-03-30 0454 251 OEA Vincennes IN USA na EM68fq 25 882 548
2006-03-30 0449 245 PTN Patterson LA USA na EL49hr 229 142
2006-03-30 0443 221 RBW Walterboro SC USA na EM92qw 25 1089 677
2006-03-30 0437 215 CSZ 'Crossroads' Athens TX USA na EM22ab 25 364 226
2006-03-30 0424 227 TNZ 'Lawrence Co.' Walnut Ridge AR USA na EM46me 25 512 318
2006-03-30 0423 224 GVA 'Geneva' Henderson KY USA na EM67ct 25 787 489
2006-03-30 0422 226 VCT 'Fostr' Victoria TX USA na EL18lv 50 565 351
2006-03-30 0416 224 BH 'Mc Den' Birmingham AL USA na EM63nm 400 532 331
2006-03-30 0411 223 FS 'Wizer' Fort Smith AR USA na EM25vi 451 280
2006-03-30 0356 216 CLB Wilmington / Carolina Beach NC USA na FM14ac 1348 838
2006-03-30 0354 212 CFV Coffeyville KS USA na EM27fc 25 679 422
2006-03-30 0334 201 MNE Minden LA USA na EM32ip 153 95
2006-03-27 0527 407 ZHU Hauts-Bois / St Hubert (Montreal) QC CAN na FN35hn 95 2233 1387
2006-03-27 0524 403 MFS 'Horseshoe Bay Resort' Marble Falls TX USA na EM00tm 609 378
2006-03-27 0524 405 LR 'Pekks' Laredo TX USA na EL07gp 839 521
2006-03-27 0518 396 CRS Corsicana TX USA na EM12ta 25 403 250
2006-03-27 0517 395 ULS Ulysses KS USA na DM97ho 1071 665
2006-03-27 0516 392 FMZ 'Beklof' Fairmont NE USA na EN10fo 25 1104 686
2006-03-27 0515 391 GXD Nacogdoches TX USA na EM21pp 25 244 152
2006-03-27 0515 391 DDP San Juan / Dorado / Luiz Munoz Marin Intl PR PTR ca FK68tl 2000 2968 1844
2006-03-27 0514 389 CSB 'Harry Strunk' Cambridge NE USA na DN90wh 25 1198 744
2006-03-27 0513 385 TKL 'Tikal' Santa Elena Y Flores (Peten) GTM ca EK56bv 1660 1031
2006-03-27 0513 385 DR 'Idder' De Ridder LA USA na EM30hs 157 97
2006-03-27 0512 383 PGR Paragould AR USA na EM46rb 25 508 316
2006-03-27 0512 384 PVJ Pauls Valley OK USA na EM14jr 581 361
2006-03-27 0510 377 AIZ 'Kaiser' Kaiser / Lake Ozark MO USA na EM38rc 714 444
2006-03-27 0507 366 EZM Eastman GA USA na EM82kd 25 851 528
2006-03-27 0506 366 YMW Maniwaki QC CAN na FN26ae 500 2125 1321
2006-03-27 0505 365 HQG Hugoton KS USA na DM97hd 25 1042 648
2006-03-27 0503 365 PTS Pittsburg KS USA na EM27pk 25 681 423
2006-03-27 0502 362 HPC Hope AR USA na EM33er 267 166
2006-03-27 0500 362 CYW Clay Center KS USA na EM19kj 25 969 602
2006-03-27 0459 360 KIN Kingston JMC ca FK17nx 1000 2161 1343
2006-03-27 0457 357 EYA 'Eastport' Jacksonville FL USA na EM90ek 25 1009 627
2006-03-27 0453 356 LLU 'Spring River' Lamar MO USA na EM27ul 674 419
2006-03-27 0449 353 LI 'Lasky' Little Rock AR USA na EM34uq 400 334 207
2006-03-27 0447 348 VLX 'Wilcox' Mountain View AR USA na EM35wu 25 463 288
2006-03-27 0446 347 TKB 'Kleberg Co' Kingsville TX USA na EL07wo 25 736 457
2006-03-27 0445 344 ZIY George Town / Grand Cayman Island CYM ca EK99hg 1750 1087
2006-03-27 0443 341 AOV 'Bilmart' Ava MO USA na EM36px 591 367
2006-03-27 0439 335 CNC Chariton IA USA na EN31ha 25 1044 648
2006-03-27 0433 329 HMA Hondo TX USA na EL09ji 25 726 451
2006-03-27 0429 286 EYQ 'Weiser' Houston TX USA na EL29ew 25 387 240
2006-03-27 0428 281 DEQ De Queen AR USA na EM24tb 25 337 210
2006-03-27 0425 278 CRZ Corning IA USA na EN20ox 25 1060 659
2006-03-27 0424 275 PEZ Pleasanton TX USA na EL08rw 687 427
2006-03-27 0408 524 AJG Mt Carmel IL USA na EM68do 25 867 539
2006-03-27 0406 524 HRD 'Hardin County' Kountze / Silsbee TX USA na EM20ui 25 254 158
2006-03-27 0406 526 ZLS Stella Maris, Long Island BAH ca FL23in 1885 1171
2006-03-27 0405 521 TVX Greencastle IN USA na EM69or 1015 631
2006-03-27 0405 521 ORC Orange City IA USA na EN12xx 25 1302 809
2006-03-27 0404 518 GCT Guthrie Center IA USA na EN21sq 1131 703
2006-03-27 0404 520 IQS Sallisaw OK USA na EM25oj 25 481 299
2006-03-27 0403 517 GKB 'Norge' Kansas City MO USA na EM29qb 850 528
2006-03-27 0402 515 PN 'Ponca' Ponca City OK USA na EM16kt 25 732 455
2006-03-27 0357 510 OF 'Carsy' Norfolk NE USA na EN11gv 1229 764
2006-03-26 0616 255 FYE Somerville TN USA na EM55he 465 289
2006-03-26 0614 258 ZSJ Sandy Lake ON CAN na EO33hb 500 2378 1478
2006-03-26 0612 250 YTJ Terrace Bay ON CAN na EN68kt 100 1949 1211
2006-03-26 0606 248 WG Winnipeg MB CAN na EN19hv 250 2071 1286
2006-03-26 0516 251 PRO Perry IA USA na EN21wt 25 1139 708
2006-03-25 0558 242 EL 'Valtr' El Paso TX USA na DM61uu 400 1338 831
2006-03-25 0547 251 MNZ Hamilton TX USA na EM01wo 25 568 353
2006-03-25 0541 248 PQF Mesquite TX USA na EM12rt 25 434 269
2006-03-25 0425 245 ARM Wharton TX USA na EL19wg 25 468 291
2006-03-25 0423 242 CUH Cushing OK USA na EM15ov 25 636 395
2006-03-24 1909 256 JBL 'Hodge' Jonesboro LA USA na EM32pe 78 49
2006-03-24 1906 247 VED Leesville LA USA na EM31hc 135 84
2006-03-24 1904 240 AWC Fort Polk LA USA na EM31ij 115 72
2006-03-24 0521 316 #848 Killarney Lake (Spokane) WA USA na DN17gm 2772 1722
2006-03-24 0516 294 #771 New Bern NC USA na FM15le 1451 901
2006-03-24 0510 291 #845 Clines Corners (Albuquerque) NM USA na DM64sw 1378 856
2006-03-24 0505 325 #851 Dickinson (Medora) ND USA na DN86pv 1916 1191
2006-03-24 0457 305 #795 Bakersfield CA USA na DM05kd 2527 1570
2006-03-24 0427 304 #816 Aransas Pass TX USA na EL17lu 638 396
2006-03-24 0426 300 #813 Mobile Point AL USA na EM50xf 422 262
2006-03-24 0415 317 #858 Hartsville TN USA na EM66wj 761 473
2006-03-24 0414 312 #827 McDill A.F.B. (Tampa) FL USA na EL87ru 1018 632
2006-03-24 0413 310 #859 Whitney NE USA na DN82pr 1542 958
2006-03-24 0358 290 #869 Taylorville (Louisville) KY USA na EM78ia 940 584
2006-03-24 0354 322 #862 Summerfield (St. Louis, MO) IL USA na EM58co 798 496
2006-03-24 0351 318 #823 Summerfield TX USA na DM84rt 1028 639
2006-03-24 0351 320 #865 Miller's Ferry AL USA na EM62hc 451 280
2006-03-24 0348 309 #850 Clark SD USA na EN14aw 1557 968
2006-03-24 0348 311 #863 Teeds Grove (Rock Island, IL) IA USA na EN42va 1161 722
2006-03-24 0347 307 #825 Hackleburg AL USA na EM64bg 489 304
2006-03-24 0346 303 #873 Myton UT USA na DN40xc 1860 1156
2006-03-24 0345 299 #866 Sallisaw OK USA na EM25oi 477 296
2006-03-24 0328 289 #765 Maple Hill (Topeka) KS USA na EM19xb 893 555
2006-03-24 0004 297 #792 Bobo MS USA na EM44pc 299 186
2006-03-24 0002 293 #814 English Turn LA USA na EL59av 287 178
2006-03-24 0001 313 #860 Delta (Vicksburg, MS) LA USA na EM42mh 130 81
2006-03-23 0536 332 QT Thunder Bay ON CAN na EN58gi 1000 1866 1160
2006-03-23 0410 284 VIV Vivian LA USA na EM22xu 222 138
2006-03-23 0406 278 FD 'Earli' Poplar Bluff MO USA na EM46uq 581 361
2006-03-23 0405 269 AR 'Acadi' New Iberia LA USA na EL49bw 25 196 122
2006-03-23 0403 260 AVZ 'Travis' Terrell TX USA na EM12vs 25 402 250
2006-03-23 0403 263 ECY Eunice LA USA na EM30sn 25 129 80
2006-03-23 0358 256 JBL 'Hodge' Jonesboro LA USA na EM32pe 78 49
2006-03-23 0356 251 MNZ Hamilton TX USA na EM01wo 25 568 353
2006-03-22 0637 248 WG Winnipeg MB CAN na EN19hv 250 2071 1286
2006-03-22 0627 404 ABG 'Ambassador' Big Sandy TX USA na EM22ko 25 300 187
2006-03-22 0622 380 UCY 'Cayabo' Cayajabos (Pinar dal Rio) CUB ca EL82nu 100 1340 833
2006-03-22 0621 382 SP 'Huskk' Springfield IL USA na EM59cs 25 923 573
2006-03-22 0619 380 BBD Brady TX USA na EM01ie 25 682 424
2006-03-22 0612 520 IQS Sallisaw OK USA na EM25oj 25 481 299
2006-03-22 0611 518 GCT Guthrie Center IA USA na EN21sq 1131 703
2006-03-22 0610 518 $04N Portsmouth VA USA na FM16xr 1579 981
2006-03-21 0739 518 $04G New Orleans LA USA na EL59av 287 178
2006-03-21 0613 524 AJG Mt Carmel IL USA na EM68do 25 867 539
2006-03-21 0611 526 ZLS Stella Maris, Long Island BAH ca FL23in 1885 1171
2006-03-21 0610 521 TVX Greencastle IN USA na EM69or 1015 631
2006-03-21 0605 512 HMY 'Muldrow' Lexington OK USA na EM15ja 25 600 373
2006-03-21 0600 434 SLB Storm Lake IA USA na EN22jo 25 1244 773
2006-03-21 0556 428 SYW 'Cash' Greenville TX USA na EM12xx 25 395 245
2006-03-21 0546 426 FTP Fort Payne AL USA na EM74dm 25 675 420
2006-03-21 0544 423 CKP 'Pilot Rock' Cherokee IA USA na EN22fr 25 1264 785
2006-03-21 0537 420 PK Olathe KS USA na EM28ps 25 822 510
2006-03-21 0533 417 IY 'Chukk' Charles City IA USA na EN33pd 25 1275 792
2006-03-21 0531 415 CBC West End (Cayman Brac) CYM ca FK09bq 600 1810 1124
2006-03-21 0528 413 YHD Dryden ON CAN na EN39nu 250 2021 1255
2006-03-21 0527 414.5 RPB 'Republican' Belleville KS USA na EM19et 1030 640
2006-03-21 0526 411 SDA Shenandoah IA USA na EN20hs 25 1051 653
2006-03-21 0519 401 GGK Mayfield KY USA na EM56qq 25 642 399
2006-03-21 0518 400 TRX Trenton MO USA na EN30eb 25 941 585
2006-03-21 0514 400 EWP Newport AR USA na EM45jp 25 448 278
2006-03-19 2214 414 MSD Mansfield LA USA na EM32cb 1046 1016 25 163 101
2006-03-19 2207 392 ML 'Sabar' Monroe LA USA na EM32wk 1037 1031 83 52
2006-03-19 2159 388 HAH 'Natchez-Adams Co' Natchez MS USA na EM41iq 1016 1022 79 49
2006-03-19 2153 375 SPH Springhill LA USA na EM32hw 0 25 182 113
2006-03-19 2152 375 LF 'Laffs' Lafayette LA USA na EM40bg 0 159 99
2006-03-19 2147 359 MTQ 'Metcalf' Greenville MS USA na EM43mk 1040 1020 25 223 139
2006-03-19 2143 356 HZ 'Hazer' New Roads LA USA na EM40gp 1046 1022 132 82
2006-03-19 2137 341 CKM Clarksdale MS USA na EM44rh 0 25 327 203
2006-03-19 2127 332 RPF Carthage TX USA na EM22ue 1013 1026 25 212 132
2006-03-19 2104 269 AR 'Acadi' New Iberia LA USA na EL49bw 1040 0 25 196 122
2006-03-19 0750 512 HMY 'Muldrow' Lexington OK USA na EM15ja 1068 985 25 600 373
2006-03-19 0746 382 YPL Pickle Lake ON CAN na EO41vk 412 398 500 2201 1368
2006-03-19 0739 382 VKS Vicksburg MS USA na EM42mf 1028 1010 125 78
2006-03-19 0738 388 AM 'Picny' Tampa FL USA na EL87ru 1055 1026 400 1018 632
2006-03-19 0635 386 SYF St. Francis KS USA na DM99cr 1015 1016 25 1248 775
2006-03-19 0628 397 BWK Bunkie LA USA na EM30vu 1054 1026 93 58
2006-03-19 0542 248 PQF Mesquite TX USA na EM12rt 0 25 434 269
2006-03-19 0540 240 AWC Fort Polk LA USA na EM31ij 1028 1042 115 72
2006-03-19 0538 230 SH 'Crakk' Shreveport LA USA na EM32bm 1038 1034 400 189 117
2006-03-19 0524 411 HDL Holdenville OK USA na EM15tc 1020 547 340
2006-03-19 0515 407 IE 'Campi' Natchitoches LA USA na EM31lp 952 87 54
2006-03-19 0513 379 TL 'Wakul' Tallahassee FL USA na EM70th 1045 1014 400 754 468
2006-03-19 0511 379 LRR 'Allen Parish' Oakdale LA USA na EM30pp 1046 1028 128 80
2006-03-19 0510 379 BRA 'Broad River' Asheville NC USA na EM85sg 1020 1052 100 980 609
2006-03-19 0510 375 DW 'Owaso' Tulsa OK USA na EM26bh 1050 1030 20 619 385
2006-03-19 0507 368 ROQ Ruston LA USA na EM32qo 1046 1023 25 112 70
2006-03-19 0502 352 VM 'Meana', Mena Intermountain Municipal AR USA na EM24xm 25 362 225
2006-03-19 0501 344 TV 'Savry' Vicksburg / Tallulah LA USA na EM42lf 1025 1000 25 119 74
2006-03-19 0456 350 RG 'Gally' Oklahoma City OK USA na EM15eh 1040 1020 400 650 404
2006-03-19 0455 344 JA 'Dinns' Jacksonville FL USA na EM90cl 1067 1006 400 993 617
2006-03-19 0450 338 MRK 'Molly Ridge' Rayville LA USA na EM42cj 1033 1020 85 53
2006-03-19 0449 335 OPL 'St Landry' Opelousas LA USA na EM30wp 1046 1037 116 72
2006-03-19 0449 329 BQP Bastrop LA USA na EM42bs 1046 1028 25 123 76
2006-03-19 0430 284 IDL Indianola MS USA na EM43pl 1031 1020 25 239 149
2006-03-19 0427 263 JSO 'Cherokee Co' Jacksonville TX USA na EM21ju 0 292 181
2006-03-19 0427 263 ECY Eunice LA USA na EM30sn 1040 1037 25 129 80
2006-03-19 0426 256 JBL 'Hodge' Jonesboro LA USA na EM32pe 1046 1040 78 49
2006-03-19 0426 247 VED Leesville LA USA na EM31hc 1023 1042 135 84
2006-03-19 0421 223 ES 'Andra' Alexandria LA USA na EM31vj 1031 1026 33 21
2006-03-19 0415 216 CLB Wilmington / Carolina Beach NC USA na FM14ac 1035 1030 1348 838
2006-03-19 0413 212 HMQ Homer LA USA na EM32ls 1038 1034 148 92
2006-03-19 0333 347 MKV Marksville LA USA na EM31xc 1055 1037 25 65 41
2006-03-19 0004 206 GLS Galveston TX USA na EL29oi 1023 1020 2000 364 226